Terminal Aerodrome Forecast
Issued by NWS

Home | Current Version | Previous Version | Text Only | Print | Product List | Glossary On
Versions: 1 2 3 4 5 6 7 8 9 10 11 12 13
000
FTUS45 KRIW 302300
TAFLND
TAF
KLND 302337Z 3100/3124 24014G22KT P6SM VCSH FEW080 BKN110
     FM310130 25011KT P6SM SCT110
     FM310800 VRB07KT P6SM VCSH OVC060
     FM311400 VRB06KT P6SM VCSH SCT060
     FM311700 35007KT P6SM SCT060=

USA.gov is the U.S. government's official web portal to all federal, state and local government web resources and services.